Eads, CO

7:43 AM MST on November 22, 2014 (GMT -0700)
Limon Municipal | Change Station
CLOSE
Current Station
Airport
Location: Limon,
Elevation: 5364 ft
Nearby Weather Stations

Elev 5364 ft 39.27 °N, 103.67 °W | Updated 48 minutes ago

Clear
Clear
34 °F
Feels Like 34 °F
N
0
Wind Variable Wind from North

Today
High -- | Low -- °F
--% Chance of Precip.
Yesterday
High -- | Low -- °F
Precip. -- in
6:39 AM 4:33 PM
New Moon, 0% visible
Pressure 29.88 in
Visibility 10.0 miles
Clouds Clear
Dew Point 16 °F
Humidity 48%
Rainfall 0.00 in
Snow Depth Not available.
UV 0 out of 12
Pollen .10 out of 12
Air Quality Not available.
Flu Activity Not available.
METAR KLIC 221355Z AUTO 00000KT 10SM CLR 01/M09 A2984 RMK AO2 SLP119 T00111089

More Conditions Fewer Conditions

Pressure 29.88 in
Visibility 10.0 miles
Clouds Clear
Dew Point 16 °F
Humidity 48%
Rainfall 0.00 in
Snow Depth Not available.
UV 0 out of 12
Pollen .10 out of 12
Air Quality Not available.
Flu Activity Not available.
METAR KLIC 221355Z AUTO 00000KT 10SM CLR 01/M09 A2984 RMK AO2 SLP119 T00111089

More Conditions Fewer Conditions

10-Day Weather Forecast

Almanac

Astronomy

Nov. 22, 2014 Rise Set
Actual Time
Civil Twilight
Nautical Twilight
Astronomical Twilight
Moon
Length of Visible Light
Length of Day
Tomorrow will be .
, % of the Moon is Illuminated

Today's Extremes

State Highs State Lows

Community

WunderPhotos

Upload Photos

1,772,823 photos uploaded!

WunderBlogs® & News

Nearby

Air Quality

  Air Quality AQ Index Pollutant
Not available.

Snow Depth

Station Depth Elevation

Earthquake Activity

City Distance Mag. Time & Date
Minimum magnitude displayed is 2.5.

Coastal Water Temperatures

Place Temperature

Nearby Weather Stations